createdAt,value
2022-08-19T00:01:30.772Z,1.70
2022-08-19T00:04:04.278Z,1.33
2022-08-19T00:06:31.853Z,1.92
2022-08-19T00:09:01.098Z,1.95
2022-08-19T00:11:28.839Z,1.77
2022-08-19T00:13:57.571Z,1.85
2022-08-19T00:16:26.889Z,1.75
2022-08-19T00:18:56.427Z,1.77
2022-08-19T00:21:25.416Z,1.80
2022-08-19T00:23:52.390Z,2.17
2022-08-19T00:26:19.532Z,2.35
2022-08-19T00:28:47.149Z,1.98
2022-08-19T00:31:14.247Z,1.70
2022-08-19T00:33:41.065Z,1.90
2022-08-19T00:36:10.307Z,2.05
2022-08-19T00:38:39.273Z,1.92
2022-08-19T00:41:07.332Z,2.75
2022-08-19T00:43:34.280Z,2.97
2022-08-19T00:46:03.866Z,2.67
2022-08-19T00:48:30.691Z,2.60
2022-08-19T00:50:57.730Z,2.38
2022-08-19T00:53:27.525Z,2.90
2022-08-19T00:55:57.660Z,2.50
2022-08-19T00:58:34.420Z,2.78
2022-08-19T01:01:02.474Z,2.88
2022-08-19T01:03:29.961Z,2.70
2022-08-19T01:06:20.082Z,2.55
2022-08-19T01:08:50.036Z,3.45
2022-08-19T01:11:17.734Z,2.58
2022-08-19T01:13:49.711Z,3.08
2022-08-19T01:16:19.825Z,3.00
2022-08-19T01:18:47.317Z,2.88
2022-08-19T01:21:57.243Z,3.42
2022-08-19T01:24:24.160Z,2.95
2022-08-19T01:26:52.447Z,2.40
2022-08-19T01:29:20.203Z,2.90
2022-08-19T01:31:48.257Z,2.53
2022-08-19T01:34:15.106Z,3.40
2022-08-19T01:36:48.099Z,2.92
2022-08-19T01:39:20.300Z,2.97
2022-08-19T01:41:48.932Z,3.20
2022-08-19T01:44:19.100Z,2.50
2022-08-19T01:46:48.732Z,2.95
2022-08-19T01:49:18.602Z,2.42
2022-08-19T01:51:45.814Z,2.40
2022-08-19T01:54:23.084Z,2.85
2022-08-19T01:56:58.788Z,2.85
2022-08-19T01:59:25.807Z,2.97
2022-08-19T02:01:52.671Z,3.15
2022-08-19T02:04:19.618Z,2.95
2022-08-19T02:06:46.456Z,2.88
2022-08-19T02:09:13.274Z,2.80
2022-08-19T02:11:40.181Z,2.60
2022-08-19T02:14:08.796Z,3.10
2022-08-19T02:16:37.221Z,2.88
2022-08-19T02:19:04.721Z,2.63
2022-08-19T02:21:32.059Z,3.25
2022-08-19T02:23:59.880Z,2.80
2022-08-19T02:26:29.987Z,3.20
2022-08-19T02:28:57.325Z,2.75
2022-08-19T02:31:26.258Z,2.97
2022-08-19T02:33:56.634Z,2.97
2022-08-19T02:36:25.958Z,3.60
2022-08-19T02:38:54.713Z,2.83
2022-08-19T02:41:31.996Z,3.17
2022-08-19T02:44:29.332Z,3.10
2022-08-19T02:46:51.832Z,2.55
2022-08-19T02:49:19.854Z,2.88
2022-08-19T02:51:47.272Z,3.00
2022-08-19T02:54:15.605Z,3.35
2022-08-19T02:56:44.032Z,3.35
2022-08-19T02:59:12.049Z,2.83
2022-08-19T03:01:41.516Z,3.20
2022-08-19T03:04:10.788Z,2.85
2022-08-19T03:06:39.948Z,3.08
2022-08-19T03:09:06.845Z,2.83
2022-08-19T03:11:34.389Z,3.72
2022-08-19T03:14:02.389Z,3.33
2022-08-19T03:16:33.151Z,3.28
2022-08-19T03:19:01.665Z,3.03
2022-08-19T03:21:31.652Z,3.13
2022-08-19T03:24:01.818Z,3.67
2022-08-19T03:26:29.124Z,2.55
2022-08-19T03:28:58.391Z,2.65
2022-08-19T03:31:45.710Z,3.13
2022-08-19T03:34:28.453Z,2.95
2022-08-19T03:37:01.583Z,2.90
2022-08-19T03:39:29.069Z,3.60
2022-08-19T03:42:33.075Z,3.03
2022-08-19T03:44:48.398Z,3.65
2022-08-19T03:47:17.823Z,3.00
2022-08-19T03:49:45.021Z,2.92
2022-08-19T03:52:11.970Z,3.00
2022-08-19T03:54:39.500Z,3.17
2022-08-19T03:57:07.078Z,2.97
2022-08-19T03:59:36.428Z,3.50
2022-08-19T04:02:10.171Z,3.00
2022-08-19T04:04:42.098Z,3.40
2022-08-19T04:07:10.489Z,3.60
2022-08-19T04:09:37.635Z,3.55
2022-08-19T04:12:06.496Z,3.75
2022-08-19T04:14:34.750Z,3.13
2022-08-19T04:17:05.545Z,3.33
2022-08-19T04:19:34.491Z,2.72
2022-08-19T04:22:01.402Z,3.20
2022-08-19T04:24:28.370Z,4.70
2022-08-19T04:26:55.389Z,3.30
2022-08-19T04:29:26.143Z,3.33
2022-08-19T04:31:55.462Z,3.13
2022-08-19T04:34:24.925Z,3.40
2022-08-19T04:36:53.956Z,3.20
2022-08-19T04:39:45.191Z,3.20
2022-08-19T04:42:31.207Z,3.30
2022-08-19T04:44:59.503Z,3.33
2022-08-19T04:47:47.638Z,3.88
2022-08-19T04:50:13.980Z,3.78
2022-08-19T04:52:44.203Z,3.80
2022-08-19T04:55:12.753Z,3.85
2022-08-19T04:57:41.270Z,3.60
2022-08-19T05:00:10.341Z,3.75
2022-08-19T05:02:37.428Z,3.70
2022-08-19T05:05:04.828Z,3.85
2022-08-19T05:07:31.836Z,4.30
2022-08-19T05:09:59.245Z,4.13
2022-08-19T05:12:29.230Z,4.43
2022-08-19T05:14:57.990Z,4.57
2022-08-19T05:17:27.994Z,4.47
2022-08-19T05:20:15.181Z,5.10
2022-08-19T05:22:44.768Z,4.50
2022-08-19T05:25:15.161Z,4.70
2022-08-19T05:27:43.011Z,3.92
2022-08-19T05:30:11.358Z,4.38
2022-08-19T05:32:39.034Z,4.18
2022-08-19T05:35:07.086Z,5.00
2022-08-19T05:37:34.066Z,4.93
2022-08-19T05:40:01.106Z,4.45
2022-08-19T05:42:28.065Z,4.57
2022-08-19T05:44:55.014Z,4.18
2022-08-19T05:47:22.336Z,3.53
2022-08-19T05:49:51.428Z,3.97
2022-08-19T05:52:19.628Z,4.63
2022-08-19T05:57:20.469Z,5.05
2022-08-19T05:59:52.707Z,5.22
2022-08-19T06:02:26.003Z,5.45
2022-08-19T06:04:53.107Z,5.40
2022-08-19T06:07:20.482Z,5.18
2022-08-19T06:10:00.062Z,4.55
2022-08-19T06:12:35.238Z,5.38
2022-08-19T06:15:06.762Z,4.88
2022-08-19T06:17:35.767Z,4.18
2022-08-19T06:20:14.132Z,4.30
2022-08-19T06:22:46.828Z,4.65
2022-08-19T06:25:15.576Z,3.97
2022-08-19T06:27:58.946Z,4.35
2022-08-19T06:30:30.586Z,4.28
2022-08-19T06:32:57.498Z,4.55
2022-08-19T06:35:24.564Z,5.15
2022-08-19T06:37:51.565Z,4.47
2022-08-19T06:40:18.505Z,3.53
2022-08-19T06:42:54.129Z,4.63
2022-08-19T06:45:24.648Z,3.80
2022-08-19T06:47:56.792Z,4.35
2022-08-19T06:50:25.156Z,4.18
2022-08-19T06:52:52.751Z,3.53
2022-08-19T06:55:20.249Z,3.42
2022-08-19T06:57:49.175Z,4.00
2022-08-19T07:00:17.005Z,2.67
2022-08-19T07:02:49.720Z,2.83
2022-08-19T07:05:23.003Z,2.53
2022-08-19T07:07:51.017Z,2.70
2022-08-19T07:10:18.712Z,2.13
2022-08-19T07:12:45.701Z,2.20
2022-08-19T07:15:12.969Z,2.25
2022-08-19T07:17:41.823Z,1.70
2022-08-19T07:20:10.349Z,2.30
2022-08-19T07:22:39.060Z,2.05
2022-08-19T07:25:08.599Z,1.45
2022-08-19T07:27:35.614Z,2.97
2022-08-19T07:30:02.797Z,2.22
2022-08-19T07:32:31.283Z,2.00
2022-08-19T07:35:01.584Z,1.80
2022-08-19T07:37:33.139Z,2.63
2022-08-19T07:40:01.398Z,1.50
2022-08-19T07:42:30.695Z,2.08
2022-08-19T07:44:59.337Z,1.90
2022-08-19T07:47:50.228Z,1.65
2022-08-19T07:50:13.528Z,1.75
2022-08-19T07:52:41.034Z,1.80
2022-08-19T07:55:11.413Z,1.60
2022-08-19T07:57:58.130Z,1.48
2022-08-19T08:00:25.061Z,1.48
2022-08-19T08:02:55.553Z,1.50
2022-08-19T08:05:44.153Z,1.40
2022-08-19T08:08:30.952Z,1.60
2022-08-19T08:10:59.616Z,1.40
2022-08-19T08:13:27.947Z,2.28
2022-08-19T08:15:56.091Z,2.00
2022-08-19T08:18:27.846Z,1.85
2022-08-19T08:23:29.629Z,1.67
2022-08-19T08:25:58.994Z,2.15
2022-08-19T08:28:29.666Z,2.28
2022-08-19T08:30:58.048Z,2.10
2022-08-19T08:33:33.377Z,1.80
2022-08-19T08:36:08.744Z,1.67
2022-08-19T08:41:31.435Z,1.73
2022-08-19T08:43:58.662Z,1.55
2022-08-19T08:46:32.412Z,1.58
2022-08-19T08:49:21.337Z,1.83
2022-08-19T08:52:03.602Z,1.75
2022-08-19T08:54:41.363Z,1.98
2022-08-19T08:57:40.580Z,1.38
2022-08-19T09:00:15.920Z,1.42
2022-08-19T09:02:43.954Z,2.00
2022-08-19T09:05:16.489Z,1.67
2022-08-19T09:07:50.081Z,1.73
2022-08-19T09:10:33.625Z,2.38
2022-08-19T09:13:00.832Z,1.80
2022-08-19T09:15:36.830Z,3.10
2022-08-19T09:18:07.223Z,2.15
2022-08-19T09:20:34.429Z,2.00
2022-08-19T09:23:01.357Z,2.47
2022-08-19T09:25:29.408Z,1.75
2022-08-19T09:28:02.333Z,2.05
2022-08-19T09:30:33.985Z,1.55
2022-08-19T09:33:01.887Z,1.55
2022-08-19T09:35:30.880Z,2.10
2022-08-19T09:38:00.066Z,1.70
2022-08-19T09:40:30.318Z,1.73
2022-08-19T09:43:01.086Z,1.17
2022-08-19T09:45:29.363Z,1.95
2022-08-19T09:47:57.449Z,1.70
2022-08-19T09:50:24.964Z,1.55
2022-08-19T09:52:57.292Z,1.27
2022-08-19T09:55:31.488Z,1.20
2022-08-19T09:58:01.043Z,1.40
2022-08-19T10:00:27.914Z,1.25
2022-08-19T10:02:54.740Z,1.67
2022-08-19T10:05:42.182Z,1.33
2022-08-19T10:08:13.031Z,1.23
2022-08-19T10:10:44.234Z,1.58
2022-08-19T10:13:16.060Z,0.82
2022-08-19T10:15:47.605Z,1.00
2022-08-19T10:18:18.732Z,1.20
2022-08-19T10:20:51.765Z,1.25
2022-08-19T10:23:21.316Z,1.35
2022-08-19T10:25:49.096Z,1.75
2022-08-19T10:28:16.142Z,1.50
2022-08-19T10:30:46.388Z,1.30
2022-08-19T10:33:13.706Z,1.48
2022-08-19T10:35:42.692Z,1.17
2022-08-19T10:38:32.435Z,1.48
2022-08-19T10:41:15.477Z,1.23
2022-08-19T10:43:43.459Z,1.50
2022-08-19T10:46:14.285Z,1.35
2022-08-19T10:48:44.678Z,1.40
2022-08-19T10:51:30.513Z,1.73
2022-08-19T10:53:58.194Z,1.40
2022-08-19T10:56:44.174Z,1.48
2022-08-19T10:59:13.871Z,1.50
2022-08-19T11:01:43.022Z,1.75
2022-08-19T11:04:12.199Z,1.50
2022-08-19T11:06:39.568Z,1.63
2022-08-19T11:09:07.112Z,1.70
2022-08-19T11:11:40.430Z,1.23
2022-08-19T11:14:13.356Z,1.50
2022-08-19T11:16:41.269Z,1.60
2022-08-19T11:19:10.023Z,1.40
2022-08-19T11:21:42.597Z,1.30
2022-08-19T11:24:12.902Z,1.40
2022-08-19T11:26:40.880Z,1.27
2022-08-19T11:29:16.230Z,1.02
2022-08-19T11:31:46.469Z,1.15
2022-08-19T11:34:22.984Z,1.45
2022-08-19T11:36:51.907Z,0.98
2022-08-19T11:39:21.521Z,1.20
2022-08-19T11:41:48.710Z,1.95
2022-08-19T11:44:15.573Z,1.90
2022-08-19T11:46:47.783Z,2.17
2022-08-19T11:49:17.408Z,1.50
2022-08-19T11:51:44.448Z,1.67
2022-08-19T11:54:13.714Z,1.40
2022-08-19T11:56:40.920Z,1.38
2022-08-19T11:59:12.802Z,1.50
2022-08-19T12:01:43.742Z,1.50
2022-08-19T12:04:11.653Z,1.73
2022-08-19T12:06:40.312Z,1.67
2022-08-19T12:09:10.273Z,1.75
2022-08-19T12:11:39.283Z,1.30
2022-08-19T12:14:06.647Z,1.20
2022-08-19T12:16:33.891Z,1.55
2022-08-19T12:19:04.884Z,1.45
2022-08-19T12:21:34.054Z,1.48
2022-08-19T12:24:02.928Z,1.42
2022-08-19T12:26:32.407Z,1.70
2022-08-19T12:29:00.453Z,1.88
2022-08-19T12:31:29.212Z,1.85
2022-08-19T12:33:56.668Z,1.73
2022-08-19T12:36:24.227Z,2.13
2022-08-19T12:38:51.917Z,1.55
2022-08-19T12:41:22.134Z,2.08
2022-08-19T12:43:50.333Z,1.90
2022-08-19T12:46:19.683Z,2.15
2022-08-19T12:48:49.200Z,1.83
2022-08-19T12:51:21.129Z,1.70
2022-08-19T12:53:48.933Z,1.83
2022-08-19T12:56:17.494Z,1.83
2022-08-19T12:58:48.851Z,1.90
2022-08-19T13:01:22.676Z,2.17
2022-08-19T13:03:51.099Z,1.67
2022-08-19T13:06:19.581Z,1.80
2022-08-19T13:08:47.519Z,1.95
2022-08-19T13:11:20.464Z,1.60
2022-08-19T13:13:51.812Z,1.75
2022-08-19T13:16:21.092Z,2.40
2022-08-19T13:18:48.598Z,1.52
2022-08-19T13:21:15.745Z,2.30
2022-08-19T13:23:42.797Z,1.90
2022-08-19T13:26:12.380Z,1.20
2022-08-19T13:28:59.382Z,1.50
2022-08-19T13:31:46.301Z,1.70
2022-08-19T13:34:13.613Z,1.73
2022-08-19T13:36:40.538Z,2.03
2022-08-19T13:39:09.368Z,1.80
2022-08-19T13:41:37.442Z,2.28
2022-08-19T13:44:05.970Z,2.00
2022-08-19T13:46:32.892Z,1.50
2022-08-19T13:48:59.783Z,1.88
2022-08-19T13:51:26.730Z,2.50
2022-08-19T13:53:54.261Z,2.33
2022-08-19T13:56:25.532Z,1.60
2022-08-19T13:58:52.947Z,1.50
2022-08-19T14:01:21.531Z,1.42
2022-08-19T14:03:51.488Z,1.73
2022-08-19T14:06:20.120Z,1.25
2022-08-19T14:08:48.433Z,1.30
2022-08-19T14:11:15.611Z,1.33
2022-08-19T14:13:42.601Z,1.77
2022-08-19T14:16:14.641Z,1.77
2022-08-19T14:18:42.489Z,1.50
2022-08-19T14:21:14.784Z,1.60
2022-08-19T14:23:41.877Z,1.90
2022-08-19T14:26:12.561Z,1.55
2022-08-19T14:28:41.834Z,1.42
2022-08-19T14:31:14.006Z,1.95
2022-08-19T14:33:41.499Z,1.33
2022-08-19T14:36:08.595Z,1.55
2022-08-19T14:38:35.871Z,1.60
2022-08-19T14:41:21.038Z,1.77
2022-08-19T14:43:50.765Z,1.55
2022-08-19T14:46:21.745Z,1.50
2022-08-19T14:48:51.638Z,1.98
2022-08-19T14:51:20.104Z,1.40
2022-08-19T14:53:49.608Z,1.50
2022-08-19T14:56:20.386Z,1.42
2022-08-19T14:58:47.439Z,1.27
2022-08-19T15:01:14.795Z,1.95
2022-08-19T15:03:42.266Z,1.50
2022-08-19T15:06:09.756Z,1.85
2022-08-19T15:08:41.958Z,1.70
2022-08-19T15:11:11.011Z,1.42
2022-08-19T15:13:38.022Z,1.77
2022-08-19T15:16:05.476Z,1.65
2022-08-19T15:18:33.534Z,1.70
2022-08-19T15:21:00.397Z,1.80
2022-08-19T15:23:27.526Z,1.70
2022-08-19T15:25:56.599Z,1.73
2022-08-19T15:28:24.994Z,2.00
2022-08-19T15:30:52.936Z,2.22
2022-08-19T15:33:21.164Z,2.38
2022-08-19T15:35:51.031Z,2.20
2022-08-19T15:38:22.153Z,2.55
2022-08-19T15:40:50.413Z,1.95
2022-08-19T15:43:18.220Z,3.20
2022-08-19T15:45:49.315Z,3.95
2022-08-19T15:48:16.573Z,2.88
2022-08-19T15:50:43.495Z,3.70
2022-08-19T15:53:11.152Z,2.92
2022-08-19T15:55:43.990Z,3.25
2022-08-19T15:58:32.556Z,3.58
2022-08-19T16:01:21.156Z,3.78
2022-08-19T16:04:14.679Z,3.40
2022-08-19T16:06:50.491Z,2.72
2022-08-19T16:09:23.543Z,3.67
2022-08-19T16:11:56.767Z,4.90
2022-08-19T16:14:26.493Z,3.45
2022-08-19T16:16:54.965Z,3.78
2022-08-19T16:19:21.782Z,3.25
2022-08-19T16:21:52.971Z,3.53
2022-08-19T16:24:22.926Z,3.17
2022-08-19T16:26:50.292Z,3.25
2022-08-19T16:29:30.235Z,3.63
2022-08-19T16:34:33.981Z,3.35
2022-08-19T16:37:01.747Z,3.60
2022-08-19T16:39:28.637Z,3.42
2022-08-19T16:41:55.564Z,3.40
2022-08-19T16:44:22.563Z,3.00
2022-08-19T16:46:58.737Z,3.17
2022-08-19T16:49:54.611Z,3.47
2022-08-19T16:52:16.110Z,3.03
2022-08-19T16:54:43.774Z,3.83
2022-08-19T16:57:12.353Z,2.70
2022-08-19T16:59:42.513Z,2.75
2022-08-19T17:02:16.202Z,2.05
2022-08-19T17:04:43.052Z,2.95
2022-08-19T17:07:10.582Z,3.42
2022-08-19T17:09:37.946Z,3.05
2022-08-19T17:12:05.653Z,2.80
2022-08-19T17:14:32.589Z,2.97
2022-08-19T17:16:59.496Z,2.58
2022-08-19T17:19:28.220Z,2.85
2022-08-19T17:21:57.753Z,3.75
2022-08-19T17:24:24.576Z,2.90
2022-08-19T17:26:51.410Z,3.22
2022-08-19T17:29:18.349Z,3.03
2022-08-19T17:31:45.328Z,2.47
2022-08-19T17:34:12.160Z,2.53
2022-08-19T17:36:39.001Z,1.77
2022-08-19T17:39:06.000Z,2.30
2022-08-19T17:41:34.225Z,1.80
2022-08-19T17:44:02.403Z,2.83
2022-08-19T17:46:30.558Z,2.38
2022-08-19T17:48:58.378Z,2.60
2022-08-19T17:51:34.040Z,2.30
2022-08-19T17:54:02.322Z,2.97
2022-08-19T17:56:29.290Z,1.92
2022-08-19T17:58:59.911Z,1.92
2022-08-19T18:01:31.430Z,1.85
2022-08-19T18:04:11.196Z,1.88
2022-08-19T18:06:38.854Z,2.67
2022-08-19T18:09:07.265Z,2.08
2022-08-19T18:11:34.756Z,2.10
2022-08-19T18:14:01.774Z,2.72
2022-08-19T18:16:29.340Z,2.03
2022-08-19T18:18:56.364Z,2.50
2022-08-19T18:21:30.013Z,2.08
2022-08-19T18:24:01.564Z,2.45
2022-08-19T18:26:30.164Z,1.85
2022-08-19T18:28:57.236Z,2.00
2022-08-19T18:31:24.138Z,2.60
2022-08-19T18:33:52.777Z,1.80
2022-08-19T18:36:37.393Z,2.53
2022-08-19T18:39:25.907Z,2.40
2022-08-19T18:42:14.868Z,1.65
2022-08-19T18:45:00.431Z,2.35
2022-08-19T18:48:05.685Z,2.60
2022-08-19T18:50:33.478Z,2.70
2022-08-19T18:53:01.759Z,2.90
2022-08-19T18:55:29.517Z,2.78
2022-08-19T18:57:56.504Z,3.47
2022-08-19T19:00:24.053Z,2.78
2022-08-19T19:02:50.953Z,2.85
2022-08-19T19:05:17.840Z,2.72
2022-08-19T19:07:44.651Z,3.33
2022-08-19T19:10:11.516Z,2.95
2022-08-19T19:12:44.699Z,2.38
2022-08-19T19:15:12.435Z,2.33
2022-08-19T19:17:39.875Z,2.08
2022-08-19T19:20:07.058Z,2.35
2022-08-19T19:22:33.930Z,1.98
2022-08-19T19:25:00.927Z,1.95
2022-08-19T19:27:27.768Z,1.90
2022-08-19T19:29:55.740Z,1.98
2022-08-19T19:32:29.466Z,2.40
2022-08-19T19:34:56.348Z,2.10
2022-08-19T19:37:23.264Z,1.90
2022-08-19T19:39:50.219Z,2.05
2022-08-19T19:42:21.433Z,2.10
2022-08-19T19:44:54.861Z,2.58
2022-08-19T19:47:24.240Z,2.35
2022-08-19T19:50:13.688Z,2.60
2022-08-19T19:52:39.007Z,2.53
2022-08-19T19:55:06.541Z,2.58
2022-08-19T19:57:33.452Z,3.10
2022-08-19T20:00:00.708Z,2.55
2022-08-19T20:02:27.556Z,2.10
2022-08-19T20:04:57.101Z,2.20
2022-08-19T20:07:43.866Z,2.00
2022-08-19T20:10:10.797Z,2.10
2022-08-19T20:12:39.129Z,1.80
2022-08-19T20:15:06.762Z,1.48
2022-08-19T20:17:33.645Z,1.60
2022-08-19T20:20:00.518Z,1.60
2022-08-19T20:22:27.423Z,1.38
2022-08-19T20:25:01.294Z,1.30
2022-08-19T20:27:29.311Z,1.17
2022-08-19T20:29:59.907Z,1.20
2022-08-19T20:32:26.768Z,1.30
2022-08-19T20:34:53.624Z,1.17
2022-08-19T20:37:20.768Z,0.95
2022-08-19T20:39:47.760Z,1.02
2022-08-19T20:42:14.670Z,0.90
2022-08-19T20:44:41.539Z,1.00
2022-08-19T20:47:08.406Z,0.93
2022-08-19T20:49:35.386Z,1.10
2022-08-19T20:52:03.789Z,1.13
2022-08-19T20:54:31.291Z,0.90
2022-08-19T20:56:58.250Z,0.68
2022-08-19T20:59:26.260Z,0.85
2022-08-19T21:01:53.419Z,1.00
2022-08-19T21:04:21.530Z,0.80
2022-08-19T21:06:50.014Z,0.90
2022-08-19T21:09:17.035Z,1.23
2022-08-19T21:11:44.165Z,1.40
2022-08-19T21:14:11.011Z,1.45
2022-08-19T21:16:37.899Z,1.98
2022-08-19T21:19:04.935Z,0.80
2022-08-19T21:21:33.068Z,1.10
2022-08-19T21:23:59.981Z,1.08
2022-08-19T21:26:26.952Z,1.10
2022-08-19T21:28:53.824Z,1.17
2022-08-19T21:31:21.097Z,1.05
2022-08-19T21:33:48.028Z,1.15
2022-08-19T21:36:14.961Z,1.20
2022-08-19T21:38:41.996Z,1.00
2022-08-19T21:41:08.825Z,1.23
2022-08-19T21:43:37.166Z,1.30
2022-08-19T21:46:04.951Z,1.38
2022-08-19T21:48:31.867Z,0.90
2022-08-19T21:50:58.747Z,2.10
2022-08-19T21:53:34.196Z,1.35
2022-08-19T21:56:02.488Z,1.25
2022-08-19T21:58:30.302Z,1.77
2022-08-19T22:01:05.675Z,1.10
2022-08-19T22:03:34.338Z,1.33
2022-08-19T22:06:01.580Z,1.48
2022-08-19T22:08:28.613Z,1.48
2022-08-19T22:10:55.764Z,1.65
2022-08-19T22:13:23.485Z,1.20
2022-08-19T22:15:51.965Z,1.70
2022-08-19T22:18:19.049Z,1.40
2022-08-19T22:20:46.405Z,1.40
2022-08-19T22:23:13.767Z,1.50
2022-08-19T22:25:45.399Z,1.83
2022-08-19T22:28:14.035Z,1.27
2022-08-19T22:30:47.318Z,1.35
2022-08-19T22:33:20.668Z,2.38
2022-08-19T22:35:48.340Z,2.05
2022-08-19T22:38:16.012Z,2.42
2022-08-19T22:40:47.290Z,1.58
2022-08-19T22:43:17.989Z,2.63
2022-08-19T22:45:46.464Z,1.90
2022-08-19T22:48:17.739Z,1.52
2022-08-19T22:51:06.047Z,1.90
2022-08-19T22:53:38.167Z,2.33
2022-08-19T22:56:07.947Z,2.05
2022-08-19T22:58:36.854Z,1.80
2022-08-19T23:01:04.110Z,1.80
2022-08-19T23:03:31.056Z,2.00
2022-08-19T23:05:57.885Z,2.17
2022-08-19T23:08:25.211Z,1.50
2022-08-19T23:10:52.083Z,1.33
2022-08-19T23:13:19.035Z,1.88
2022-08-19T23:15:46.796Z,1.92
2022-08-19T23:18:14.729Z,1.98
2022-08-19T23:20:44.706Z,1.60
2022-08-19T23:23:13.952Z,1.60
2022-08-19T23:25:41.131Z,1.92
2022-08-19T23:28:26.587Z,1.88
2022-08-19T23:30:53.824Z,1.60
2022-08-19T23:33:46.438Z,1.73
2022-08-19T23:36:18.845Z,2.10
2022-08-19T23:38:48.729Z,2.25
2022-08-19T23:41:17.496Z,2.03
2022-08-19T23:43:44.879Z,2.67
2022-08-19T23:46:14.368Z,1.75
2022-08-19T23:48:55.555Z,1.90
2022-08-19T23:51:22.547Z,2.13
2022-08-19T23:53:49.536Z,2.00
2022-08-19T23:56:16.348Z,2.33
2022-08-19T23:58:43.173Z,1.80
